This is the latest recevied weather packets stored in our database for station/object IR3AS. If no packets are shown the sender has not sent any weather packets the latest 1 day(s).
| Time | Temp. | Humidity | Pressure | Rain* | Wind** | Luminosity | Snow |
|---|---|---|---|---|---|---|---|
| 1836274815 | 14.44° C | 44% | 872.7 hPa | 0 mm | 0 m/s | - | - |
| 1836274749 | 14.44° C | 44% | 872.7 hPa | 0 mm | 0 m/s | - | - |
| 1836274508 | 14.44° C | 44% | 872.7 hPa | 0 mm | 0 m/s | - | - |
| 1836274474 | 14.44° C | 44% | 872.7 hPa | 0 mm | 0 m/s | - | - |
| 1836274449 | 14.44° C | 44% | 872.8 hPa | 0 mm | 0 m/s | - | - |
| 1836274377 | 14.44° C | 44% | 872.7 hPa | 0 mm | 0.45 m/s, 45° | - | - |
| 1836274299 | 14.44° C | 44% | 872.7 hPa | 0 mm | 0.45 m/s, 45° | - | - |
| 1836274259 | 14.44° C | 44% | 872.9 hPa | 0 mm | 0 m/s | - | - |
| 1836274149 | 14.44° C | 44% | 872.9 hPa | 0 mm | 0 m/s | - | - |
| 1777995951 | 3.89° C | 92% | 850 hPa | 0 mm | 0 m/s | - | - |
| 1777995651 | 3.89° C | 93% | 850.3 hPa | 0 mm | 2.68 m/s, 292° | - | - |
| 1777995351 | 3.33° C | 93% | 850.6 hPa | 0 mm | 3.13 m/s, 292° | - | - |
| 1777995051 | 3.33° C | 92% | 850.6 hPa | 0 mm | 2.68 m/s, 315° | - | - |
| 1777994751 | 2.78° C | 92% | 851.2 hPa | 0 mm | 2.68 m/s, 292° | - | - |
| 1777994451 | 2.78° C | 92% | 851.4 hPa | 0 mm | 3.13 m/s, 292° | - | - |
| 1777994151 | 2.78° C | 92% | 851.4 hPa | 0 mm | 4.02 m/s, 292° | - | - |
| 1777993851 | 2.78° C | 92% | 851 hPa | 0 mm | 3.58 m/s, 292° | - | - |
| 1777993551 | 2.78° C | 92% | 850.8 hPa | 0 mm | 2.68 m/s, 292° | - | - |
| 1777993251 | 2.78° C | 92% | 851.1 hPa | 0 mm | 4.02 m/s, 292° | - | - |
| 1777992952 | 2.78° C | 92% | 851 hPa | 0 mm | 3.58 m/s, 292° | - | - |
| 1777992651 | 2.78° C | 92% | 851.3 hPa | 0 mm | 3.13 m/s, 315° | - | - |
| 1777992351 | 2.78° C | 92% | 851.2 hPa | 0 mm | 3.13 m/s, 292° | - | - |
| 1777992051 | 2.78° C | 92% | 851.2 hPa | 0 mm | 3.58 m/s, 292° | - | - |
| 1777991751 | 3.33° C | 92% | 851.7 hPa | 0 mm | 5.36 m/s, 292° | - | - |
| 1777991451 | 3.33° C | 92% | 851.4 hPa | 0 mm | 4.47 m/s, 292° | - | - |
* Rain latest hour (hover to see other rain measurements)
** Current wind speed in m/s (hover to see current wind gust speed)